Canoga Park, California
Current Conditions -  °F | °C
As of 6:51 PM on Sunday 23 Nov 2014 (Local Time) from KVNY Reporting Station
Clear Clear  
Wind Chill: 67°   Ceiling: Unl
Heat Index: 67°   Visibility: 10mi
Dew Point:   Wind: 9mph
Humidity: 10%   Direction: 330°NNW
Pressure: 30.14"   Gusts: NA
Location:  34.2°N, 118.61°W
Report Text: KVNY 240251Z 33008KT 10SM CLR 19/M14 A3014 RMK AO2 SLP201 T01941139 51013
Loading
Personal Weather Stations






























Interactive Weather Map New forecast layout! Learn more

10-Day Weather Forecast

Advertisements
Track Severe Weather on mobile